createdAt,value
2023-05-22T00:01:46.997Z,57.40
2023-05-22T00:04:21.676Z,57.31
2023-05-22T00:06:49.886Z,57.46
2023-05-22T00:09:18.214Z,57.61
2023-05-22T00:11:46.422Z,57.88
2023-05-22T00:14:14.199Z,58.01
2023-05-22T00:16:42.784Z,57.92
2023-05-22T00:19:13.835Z,57.95
2023-05-22T00:21:43.178Z,57.95
2023-05-22T00:24:11.126Z,58.08
2023-05-22T00:26:38.927Z,58.19
2023-05-22T00:29:06.888Z,58.48
2023-05-22T00:31:34.948Z,58.74
2023-05-22T00:34:02.865Z,58.65
2023-05-22T00:36:31.007Z,58.72
2023-05-22T00:39:02.090Z,58.92
2023-05-22T00:41:30.802Z,59.04
2023-05-22T00:43:58.696Z,59.08
2023-05-22T00:46:26.486Z,59.23
2023-05-22T00:48:54.547Z,59.10
2023-05-22T00:51:22.891Z,59.12
2023-05-22T00:53:52.544Z,59.21
2023-05-22T00:56:22.071Z,59.42
2023-05-22T00:58:52.585Z,59.16
2023-05-22T01:01:20.676Z,59.17
2023-05-22T01:03:49.235Z,58.97
2023-05-22T01:06:21.627Z,59.07
2023-05-22T01:08:49.543Z,59.17
2023-05-22T01:11:22.436Z,59.23
2023-05-22T01:13:59.359Z,59.27
2023-05-22T01:16:42.057Z,59.47
2023-05-22T01:19:19.345Z,59.08
2023-05-22T01:22:11.714Z,59.27
2023-05-22T01:24:46.790Z,59.25
2023-05-22T01:27:42.378Z,59.05
2023-05-22T01:30:18.326Z,59.06
2023-05-22T01:32:47.240Z,59.31
2023-05-22T01:35:20.261Z,59.22
2023-05-22T01:37:48.462Z,59.11
2023-05-22T01:40:17.433Z,59.66
2023-05-22T01:42:45.999Z,59.24
2023-05-22T01:45:14.828Z,59.69
2023-05-22T01:47:43.750Z,59.78
2023-05-22T01:50:11.966Z,59.69
2023-05-22T01:52:54.380Z,59.35
2023-05-22T01:55:43.236Z,59.45
2023-05-22T01:58:23.208Z,59.38
2023-05-22T02:00:55.633Z,59.98
2023-05-22T02:03:25.228Z,59.86
2023-05-22T02:05:57.769Z,60.15
2023-05-22T02:08:26.169Z,59.86
2023-05-22T02:10:56.230Z,60.08
2023-05-22T02:13:24.599Z,59.95
2023-05-22T02:15:52.786Z,60.03
2023-05-22T02:18:20.805Z,59.89
2023-05-22T02:20:48.936Z,59.82
2023-05-22T02:23:16.896Z,59.69
2023-05-22T02:25:45.034Z,59.61
2023-05-22T02:28:12.705Z,59.49
2023-05-22T02:30:40.696Z,59.44
2023-05-22T02:33:09.675Z,59.65
2023-05-22T02:35:37.574Z,59.72
2023-05-22T02:38:05.803Z,60.18
2023-05-22T02:40:36.759Z,60.24
2023-05-22T02:43:05.130Z,60.16
2023-05-22T02:45:33.080Z,60.02
2023-05-22T02:48:06.029Z,60.36
2023-05-22T02:50:33.952Z,59.90
2023-05-22T02:53:01.832Z,60.01
2023-05-22T02:55:29.705Z,59.86
2023-05-22T02:57:57.817Z,59.57
2023-05-22T03:00:25.772Z,60.25
2023-05-22T03:02:53.724Z,60.04
2023-05-22T03:05:21.599Z,59.89
2023-05-22T03:07:49.469Z,59.76
2023-05-22T03:10:17.427Z,59.47
2023-05-22T03:12:45.340Z,60.26
2023-05-22T03:15:13.133Z,60.29
2023-05-22T03:17:41.073Z,59.81
2023-05-22T03:20:09.379Z,60.31
2023-05-22T03:22:37.383Z,60.42
2023-05-22T03:25:06.480Z,60.43
2023-05-22T03:27:34.492Z,60.53
2023-05-22T03:30:03.028Z,60.40
2023-05-22T03:32:30.778Z,60.42
2023-05-22T03:34:59.112Z,60.48
2023-05-22T03:37:26.940Z,60.51
2023-05-22T03:39:54.784Z,60.31
2023-05-22T03:42:22.867Z,60.44
2023-05-22T03:44:50.735Z,60.18
2023-05-22T03:47:18.475Z,60.39
2023-05-22T03:49:47.145Z,60.56
2023-05-22T03:52:15.036Z,60.60
2023-05-22T03:54:42.782Z,60.72
2023-05-22T03:57:10.731Z,60.58
2023-05-22T03:59:38.606Z,60.48
2023-05-22T04:02:06.988Z,60.64
2023-05-22T04:04:38.666Z,60.48
2023-05-22T04:07:08.573Z,60.87
2023-05-22T04:09:36.783Z,60.14
2023-05-22T04:12:05.014Z,60.52
2023-05-22T04:14:33.262Z,60.94
2023-05-22T04:17:01.171Z,60.88
2023-05-22T04:19:30.348Z,60.84
2023-05-22T04:21:59.087Z,60.99
2023-05-22T04:24:27.878Z,60.91
2023-05-22T04:26:56.403Z,60.88
2023-05-22T04:29:24.803Z,60.91
2023-05-22T04:31:54.650Z,60.28
2023-05-22T04:34:22.874Z,60.01
2023-05-22T04:36:56.239Z,60.40
2023-05-22T04:39:26.478Z,60.53
2023-05-22T04:41:54.523Z,60.40
2023-05-22T04:44:23.127Z,60.31
2023-05-22T04:46:51.393Z,60.01
2023-05-22T04:49:19.124Z,59.90
2023-05-22T04:51:46.996Z,60.69
2023-05-22T04:54:14.751Z,60.54
2023-05-22T04:56:42.607Z,59.53
2023-05-22T04:59:10.371Z,59.82
2023-05-22T05:01:38.651Z,59.83
2023-05-22T05:04:06.805Z,59.82
2023-05-22T05:06:34.879Z,59.92
2023-05-22T05:09:03.113Z,59.43
2023-05-22T05:11:31.017Z,59.36
2023-05-22T05:13:58.769Z,59.54
2023-05-22T05:16:26.770Z,59.49
2023-05-22T05:18:55.805Z,59.35
2023-05-22T05:21:28.028Z,59.38
2023-05-22T05:23:55.998Z,59.51
2023-05-22T05:26:24.233Z,59.27
2023-05-22T05:28:52.064Z,58.94
2023-05-22T05:31:20.890Z,58.92
2023-05-22T05:33:49.228Z,58.98
2023-05-22T05:36:16.928Z,58.99
2023-05-22T05:38:44.821Z,59.06
2023-05-22T05:41:12.769Z,58.82
2023-05-22T05:43:40.516Z,58.70
2023-05-22T05:46:08.523Z,58.95
2023-05-22T05:48:36.283Z,58.84
2023-05-22T05:51:05.334Z,58.68
2023-05-22T05:53:33.577Z,58.38
2023-05-22T05:56:01.564Z,58.39
2023-05-22T05:58:29.364Z,58.14
2023-05-22T06:00:57.576Z,58.02
2023-05-22T06:03:28.217Z,57.87
2023-05-22T06:05:57.775Z,58.34
2023-05-22T06:08:25.527Z,58.14
2023-05-22T06:10:53.357Z,57.71
2023-05-22T06:13:21.264Z,57.47
2023-05-22T06:15:49.031Z,57.76
2023-05-22T06:18:17.603Z,57.61
2023-05-22T06:20:45.472Z,57.12
2023-05-22T06:23:13.410Z,57.65
2023-05-22T06:25:41.357Z,57.49
2023-05-22T06:28:09.373Z,57.45
2023-05-22T06:30:40.166Z,57.59
2023-05-22T06:33:09.258Z,56.88
2023-05-22T07:03:10.406Z,55.38
2023-05-22T07:05:38.391Z,54.62
2023-05-22T07:08:06.555Z,54.75
2023-05-22T07:10:34.501Z,54.24
2023-05-22T07:13:02.284Z,54.58
2023-05-22T07:15:30.059Z,54.26
2023-05-22T07:17:58.161Z,53.68
2023-05-22T07:20:26.477Z,54.03
2023-05-22T07:22:54.246Z,54.05
2023-05-22T07:25:22.080Z,54.07
2023-05-22T07:27:49.848Z,54.21
2023-05-22T07:30:17.755Z,53.79
2023-05-22T07:32:46.379Z,53.52
2023-05-22T07:35:14.365Z,53.26
2023-05-22T07:37:42.140Z,52.16
2023-05-22T07:40:11.368Z,52.51
2023-05-22T07:42:39.321Z,51.20
2023-05-22T07:45:07.616Z,52.37
2023-05-22T07:47:35.794Z,52.90
2023-05-22T07:50:04.792Z,51.82
2023-05-22T07:52:33.059Z,51.05
2023-05-22T07:55:01.014Z,51.93
2023-05-22T07:57:29.994Z,52.24
2023-05-22T07:59:59.316Z,51.15
2023-05-22T08:02:27.519Z,50.66
2023-05-22T08:04:55.794Z,50.23
2023-05-22T08:07:25.773Z,51.07
2023-05-22T08:09:53.792Z,49.10
2023-05-22T08:12:21.618Z,50.18
2023-05-22T08:14:49.536Z,49.11
2023-05-22T08:17:17.696Z,48.60
2023-05-22T08:19:46.157Z,49.17
2023-05-22T08:22:14.199Z,49.84
2023-05-22T08:24:42.077Z,48.86
2023-05-22T08:27:10.038Z,47.71
2023-05-22T08:29:38.009Z,49.46
2023-05-22T08:32:06.264Z,49.57
2023-05-22T08:34:34.380Z,47.43
2023-05-22T08:37:02.280Z,46.51
2023-05-22T08:39:31.549Z,46.85
2023-05-22T08:41:59.459Z,46.72
2023-05-22T08:44:27.345Z,45.70
2023-05-22T08:46:56.922Z,44.59
2023-05-22T08:49:27.333Z,46.09
2023-05-22T08:52:05.569Z,46.67
2023-05-22T08:54:34.646Z,46.78
2023-05-22T08:57:03.129Z,46.41
2023-05-22T08:59:31.042Z,45.75
2023-05-22T09:01:59.132Z,46.40
2023-05-22T09:04:28.555Z,46.85
2023-05-22T09:06:56.587Z,44.57
2023-05-22T09:09:24.940Z,44.00
2023-05-22T09:11:54.900Z,44.41
2023-05-22T09:14:22.864Z,44.57
2023-05-22T09:16:53.099Z,43.10
2023-05-22T09:19:21.514Z,43.98
2023-05-22T09:21:49.523Z,44.54
2023-05-22T09:24:17.380Z,43.30
2023-05-22T09:26:45.350Z,43.70
2023-05-22T09:29:13.131Z,43.28
2023-05-22T09:31:42.958Z,43.67
2023-05-22T09:34:14.373Z,43.49
2023-05-22T09:36:42.690Z,42.72
2023-05-22T09:39:11.188Z,40.34
2023-05-22T09:41:40.137Z,41.76
2023-05-22T09:44:15.616Z,40.96
2023-05-22T09:46:47.488Z,41.24
2023-05-22T09:49:17.435Z,41.96
2023-05-22T09:51:49.233Z,41.23
2023-05-22T09:54:19.745Z,39.27
2023-05-22T09:56:51.641Z,38.05
2023-05-22T09:59:21.926Z,40.80
2023-05-22T10:01:49.685Z,40.90
2023-05-22T10:04:18.901Z,40.63
2023-05-22T10:06:51.262Z,39.89
2023-05-22T10:09:22.608Z,39.84
2023-05-22T10:11:53.948Z,39.36
2023-05-22T10:14:22.580Z,40.49
2023-05-22T10:16:51.602Z,39.45
2023-05-22T10:19:19.652Z,39.88
2023-05-22T10:21:48.297Z,39.62
2023-05-22T10:24:16.326Z,39.16
2023-05-22T10:26:44.709Z,38.94
2023-05-22T10:29:17.128Z,39.37
2023-05-22T10:32:14.820Z,38.55
2023-05-22T10:34:54.540Z,38.80
2023-05-22T10:37:29.964Z,37.29
2023-05-22T10:40:05.089Z,38.44
2023-05-22T10:42:33.342Z,38.71
2023-05-22T10:45:04.678Z,38.56
2023-05-22T10:47:36.222Z,37.95
2023-05-22T10:50:11.637Z,38.00
2023-05-22T10:52:40.190Z,38.34
2023-05-22T10:55:09.439Z,37.41
2023-05-22T10:57:42.369Z,37.05
2023-05-22T11:00:15.806Z,37.84
2023-05-22T11:02:45.811Z,37.27
2023-05-22T11:05:23.178Z,37.34
2023-05-22T11:07:51.369Z,37.71
2023-05-22T11:10:51.928Z,37.37
2023-05-22T11:13:20.155Z,36.11
2023-05-22T11:15:48.532Z,37.58
2023-05-22T11:18:17.214Z,37.64
2023-05-22T11:20:46.852Z,38.21
2023-05-22T11:23:15.502Z,37.93
2023-05-22T11:25:43.365Z,37.72
2023-05-22T11:28:12.144Z,37.29
2023-05-22T11:30:40.289Z,37.46
2023-05-22T11:33:08.559Z,37.06
2023-05-22T11:35:38.029Z,36.91
2023-05-22T11:38:07.363Z,36.63
2023-05-22T11:40:35.579Z,36.79
2023-05-22T11:43:04.825Z,36.63
2023-05-22T11:45:37.582Z,36.41
2023-05-22T11:48:05.825Z,36.17
2023-05-22T11:50:42.516Z,35.76
2023-05-22T11:53:11.129Z,35.71
2023-05-22T11:55:39.029Z,35.70
2023-05-22T11:58:06.864Z,34.64
2023-05-22T12:00:34.801Z,35.05
2023-05-22T12:03:03.115Z,35.31
2023-05-22T12:05:32.376Z,35.44
2023-05-22T12:08:00.200Z,34.94
2023-05-22T12:10:28.078Z,34.94
2023-05-22T12:12:56.231Z,35.28
2023-05-22T12:15:24.817Z,35.45
2023-05-22T12:17:55.480Z,35.69
2023-05-22T12:20:23.373Z,34.60
2023-05-22T12:22:51.198Z,35.38
2023-05-22T12:25:20.372Z,35.52
2023-05-22T12:27:48.538Z,35.51
2023-05-22T12:30:17.294Z,35.58
2023-05-22T12:32:51.721Z,35.96
2023-05-22T12:35:19.956Z,35.61
2023-05-22T12:37:49.448Z,35.96
2023-05-22T12:40:17.610Z,34.35
2023-05-22T12:42:45.598Z,33.97
2023-05-22T12:45:14.102Z,34.49
2023-05-22T12:47:42.026Z,35.19
2023-05-22T12:50:10.416Z,35.71
2023-05-22T12:52:38.228Z,35.63
2023-05-22T12:55:06.596Z,34.81
2023-05-22T12:57:34.690Z,34.03
2023-05-22T13:00:02.724Z,34.97
2023-05-22T13:02:30.737Z,34.67
2023-05-22T13:04:59.491Z,34.47
2023-05-22T13:07:27.576Z,34.67
2023-05-22T13:09:55.453Z,35.15
2023-05-22T13:12:23.849Z,34.39
2023-05-22T13:14:51.850Z,33.23
2023-05-22T13:17:19.703Z,34.20
2023-05-22T13:19:47.870Z,34.29
2023-05-22T13:22:15.966Z,33.66
2023-05-22T13:24:43.852Z,32.93
2023-05-22T13:27:12.138Z,33.86
2023-05-22T13:29:40.012Z,34.14
2023-05-22T13:32:07.946Z,33.56
2023-05-22T13:34:35.862Z,33.90
2023-05-22T13:37:04.338Z,33.59
2023-05-22T13:39:32.106Z,33.59
2023-05-22T13:42:00.815Z,34.25
2023-05-22T13:44:28.612Z,33.47
2023-05-22T13:46:56.613Z,33.21
2023-05-22T13:49:24.520Z,33.98
2023-05-22T13:51:52.583Z,33.20
2023-05-22T13:54:20.689Z,33.75
2023-05-22T13:56:48.586Z,34.08
2023-05-22T13:59:16.468Z,33.65
2023-05-22T14:01:44.309Z,32.77
2023-05-22T14:04:12.265Z,33.91
2023-05-22T14:06:40.068Z,33.86
2023-05-22T14:09:09.625Z,34.53
2023-05-22T14:11:37.583Z,34.31
2023-05-22T14:14:05.636Z,33.74
2023-05-22T14:16:33.691Z,34.31
2023-05-22T14:19:01.919Z,34.59
2023-05-22T14:21:31.154Z,33.75
2023-05-22T14:23:59.168Z,33.37
2023-05-22T14:26:27.894Z,33.65
2023-05-22T14:28:55.812Z,33.65
2023-05-22T14:31:23.804Z,32.67
2023-05-22T14:33:51.858Z,33.00
2023-05-22T14:36:19.638Z,32.84
2023-05-22T14:38:47.574Z,32.63
2023-05-22T14:41:16.516Z,33.01
2023-05-22T14:43:44.315Z,33.65
2023-05-22T14:46:12.729Z,33.79
2023-05-22T14:48:40.707Z,33.02
2023-05-22T14:51:08.569Z,32.29
2023-05-22T14:53:36.380Z,32.88
2023-05-22T14:56:04.132Z,32.16
2023-05-22T14:58:32.229Z,33.42
2023-05-22T15:01:00.000Z,32.75
2023-05-22T15:03:27.877Z,31.97
2023-05-22T15:05:55.752Z,32.46
2023-05-22T15:08:23.709Z,33.23
2023-05-22T15:10:51.943Z,32.69
2023-05-22T15:13:19.790Z,32.73
2023-05-22T15:15:47.756Z,32.76
2023-05-22T15:18:16.538Z,32.17
2023-05-22T15:20:44.563Z,33.07
2023-05-22T15:23:12.323Z,32.66
2023-05-22T15:25:40.598Z,32.55
2023-05-22T15:28:08.704Z,32.72
2023-05-22T15:30:38.895Z,32.55
2023-05-22T15:33:07.347Z,32.80
2023-05-22T15:35:35.160Z,32.96
2023-05-22T15:38:03.653Z,32.98
2023-05-22T15:40:31.692Z,32.99
2023-05-22T15:43:02.071Z,32.76
2023-05-22T15:45:30.809Z,32.36
2023-05-22T15:47:58.870Z,32.22
2023-05-22T15:50:26.935Z,32.92
2023-05-22T15:52:54.811Z,32.76
2023-05-22T15:55:22.584Z,33.08
2023-05-22T15:57:50.559Z,32.39
2023-05-22T16:00:21.177Z,32.70
2023-05-22T16:02:49.739Z,32.82
2023-05-22T16:05:17.932Z,32.75
2023-05-22T16:07:46.023Z,32.95
2023-05-22T16:10:13.755Z,32.72
2023-05-22T16:12:41.739Z,32.45
2023-05-22T16:15:10.038Z,32.94
2023-05-22T16:17:38.829Z,33.02
2023-05-22T16:20:08.755Z,32.50
2023-05-22T16:22:47.947Z,32.49
2023-05-22T16:25:17.500Z,32.60
2023-05-22T16:27:45.624Z,32.30
2023-05-22T16:30:17.139Z,32.98
2023-05-22T16:32:48.847Z,33.03
2023-05-22T16:35:17.201Z,33.16
2023-05-22T16:37:45.082Z,33.04
2023-05-22T16:40:13.100Z,32.96
2023-05-22T16:42:40.987Z,33.08
2023-05-22T16:45:09.233Z,33.26
2023-05-22T16:47:37.284Z,32.95
2023-05-22T16:50:06.163Z,33.46
2023-05-22T16:52:34.041Z,33.29
2023-05-22T16:55:02.403Z,33.42
2023-05-22T16:57:30.328Z,33.91
2023-05-22T16:59:58.368Z,34.02
2023-05-22T17:02:26.507Z,33.96
2023-05-22T17:04:54.737Z,34.91
2023-05-22T17:07:22.588Z,34.58
2023-05-22T17:09:50.476Z,34.92
2023-05-22T17:12:18.390Z,35.39
2023-05-22T17:14:46.480Z,35.79
2023-05-22T17:17:14.446Z,36.06
2023-05-22T17:19:42.360Z,35.75
2023-05-22T17:22:10.109Z,35.79
2023-05-22T17:24:38.062Z,36.26
2023-05-22T17:27:06.783Z,36.40
2023-05-22T17:29:34.593Z,36.51
2023-05-22T17:32:05.049Z,37.04
2023-05-22T17:34:33.620Z,37.18
2023-05-22T17:37:01.521Z,37.10
2023-05-22T17:39:30.784Z,37.15
2023-05-22T17:42:00.369Z,37.43
2023-05-22T17:44:28.711Z,37.16
2023-05-22T17:46:56.725Z,37.31
2023-05-22T17:49:24.451Z,37.82
2023-05-22T17:51:52.448Z,37.85
2023-05-22T17:54:20.497Z,38.07
2023-05-22T17:56:48.404Z,37.63
2023-05-22T17:59:16.433Z,38.12
2023-05-22T18:01:44.440Z,38.13
2023-05-22T18:04:12.731Z,37.89
2023-05-22T18:06:40.607Z,38.25
2023-05-22T18:09:08.422Z,38.26
2023-05-22T18:11:36.348Z,38.85
2023-05-22T18:14:04.582Z,38.45
2023-05-22T18:16:32.589Z,38.31
2023-05-22T18:19:00.836Z,38.35
2023-05-22T18:21:28.917Z,38.81
2023-05-22T18:23:56.750Z,38.62
2023-05-22T18:26:24.544Z,39.33
2023-05-22T18:28:52.557Z,39.51
2023-05-22T18:31:20.715Z,39.00
2023-05-22T18:33:48.729Z,39.20
2023-05-22T18:36:16.786Z,39.76
2023-05-22T18:38:44.994Z,39.94
2023-05-22T18:41:12.910Z,39.95
2023-05-22T18:43:40.893Z,39.62
2023-05-22T18:46:09.082Z,40.52
2023-05-22T18:48:36.904Z,40.57
2023-05-22T18:51:04.694Z,41.03
2023-05-22T18:53:32.623Z,40.82
2023-05-22T18:56:00.921Z,41.34
2023-05-22T18:58:29.071Z,41.28
2023-05-22T19:00:57.066Z,41.27
2023-05-22T19:03:25.078Z,41.17
2023-05-22T19:05:53.517Z,41.61
2023-05-22T19:08:21.469Z,41.50
2023-05-22T19:10:49.425Z,42.20
2023-05-22T19:13:17.413Z,41.54
2023-05-22T19:15:45.558Z,42.78
2023-05-22T19:18:13.499Z,42.86
2023-05-22T19:20:41.710Z,43.03
2023-05-22T19:23:11.670Z,42.85
2023-05-22T19:25:40.599Z,43.10
2023-05-22T19:28:08.541Z,43.06
2023-05-22T19:30:36.403Z,43.23
2023-05-22T19:33:05.965Z,44.01
2023-05-22T19:35:35.897Z,44.06
2023-05-22T19:38:04.251Z,44.16
2023-05-22T19:40:32.189Z,44.40
2023-05-22T19:43:02.003Z,44.58
2023-05-22T19:45:29.929Z,45.09
2023-05-22T19:47:57.951Z,44.73
2023-05-22T19:50:26.035Z,44.93
2023-05-22T19:52:54.078Z,45.28
2023-05-22T19:55:22.102Z,45.42
2023-05-22T19:57:50.002Z,45.17
2023-05-22T20:00:18.392Z,44.81
2023-05-22T20:02:47.517Z,45.65
2023-05-22T20:05:16.015Z,45.80
2023-05-22T20:07:43.847Z,46.25
2023-05-22T20:10:11.921Z,46.11
2023-05-22T20:12:40.823Z,46.02
2023-05-22T20:15:10.716Z,46.44
2023-05-22T20:17:41.477Z,46.44
2023-05-22T20:20:10.957Z,46.33
2023-05-22T20:22:38.799Z,46.48
2023-05-22T20:25:08.811Z,47.00
2023-05-22T20:27:37.508Z,47.00
2023-05-22T20:30:07.601Z,46.96
2023-05-22T20:32:35.489Z,47.36
2023-05-22T20:35:04.239Z,47.37
2023-05-22T20:37:35.105Z,47.09
2023-05-22T20:40:03.660Z,47.59
2023-05-22T20:42:32.001Z,47.71
2023-05-22T20:44:59.797Z,47.83
2023-05-22T20:47:27.877Z,47.97
2023-05-22T20:49:56.045Z,47.91
2023-05-22T20:52:24.742Z,47.87
2023-05-22T20:54:52.759Z,47.57
2023-05-22T20:57:20.731Z,47.69
2023-05-22T20:59:48.487Z,47.88
2023-05-22T21:02:17.878Z,47.59
2023-05-22T21:04:45.849Z,47.68
2023-05-22T21:07:13.987Z,47.08
2023-05-22T21:09:41.976Z,46.94
2023-05-22T21:12:09.812Z,46.51
2023-05-22T21:14:37.562Z,46.73
2023-05-22T21:17:05.638Z,47.12
2023-05-22T21:19:33.700Z,46.43
2023-05-22T21:22:01.849Z,46.71
2023-05-22T21:24:31.245Z,46.81
2023-05-22T21:26:59.149Z,47.04
2023-05-22T21:29:27.117Z,47.24
2023-05-22T21:31:55.166Z,47.19
2023-05-22T21:34:23.201Z,47.16
2023-05-22T21:36:51.269Z,47.11
2023-05-22T21:39:19.105Z,47.29
2023-05-22T21:41:48.643Z,47.52
2023-05-22T21:44:18.771Z,47.58
2023-05-22T21:46:46.782Z,47.59
2023-05-22T21:49:15.158Z,47.81
2023-05-22T21:51:42.979Z,48.23
2023-05-22T21:54:10.794Z,48.25
2023-05-22T21:56:38.827Z,48.35
2023-05-22T21:59:06.840Z,48.29
2023-05-22T22:01:35.058Z,48.70
2023-05-22T22:04:03.224Z,48.58
2023-05-22T22:06:31.492Z,48.65
2023-05-22T22:09:00.541Z,48.73
2023-05-22T22:11:28.276Z,49.01
2023-05-22T22:13:56.532Z,48.85
2023-05-22T22:16:24.785Z,48.44
2023-05-22T22:18:53.373Z,49.20
2023-05-22T22:21:21.673Z,49.18
2023-05-22T22:23:49.553Z,49.30
2023-05-22T22:26:18.257Z,49.54
2023-05-22T22:28:46.470Z,49.74
2023-05-22T22:31:14.363Z,49.94
2023-05-22T22:33:42.508Z,50.05
2023-05-22T22:36:10.669Z,50.43
2023-05-22T22:38:38.653Z,50.36
2023-05-22T22:41:09.423Z,50.27
2023-05-22T22:43:37.445Z,50.46
2023-05-22T22:46:05.506Z,50.70
2023-05-22T22:48:33.952Z,50.91
2023-05-22T22:51:02.933Z,50.74
2023-05-22T22:53:30.695Z,51.10
2023-05-22T22:55:59.444Z,51.12
2023-05-22T22:58:27.319Z,51.26
2023-05-22T23:00:55.237Z,51.54
2023-05-22T23:03:23.275Z,51.83
2023-05-22T23:05:51.333Z,51.66
2023-05-22T23:08:20.485Z,52.05
2023-05-22T23:10:48.380Z,52.20
2023-05-22T23:13:16.507Z,52.05
2023-05-22T23:15:44.498Z,51.99
2023-05-22T23:18:14.158Z,52.21
2023-05-22T23:20:42.047Z,52.49
2023-05-22T23:23:09.961Z,52.59
2023-05-22T23:25:38.233Z,52.57
2023-05-22T23:28:07.268Z,52.86
2023-05-22T23:30:35.120Z,52.35
2023-05-22T23:33:03.062Z,52.64
2023-05-22T23:35:31.259Z,53.15
2023-05-22T23:37:59.274Z,53.07
2023-05-22T23:40:27.130Z,53.23
2023-05-22T23:42:54.884Z,53.12
2023-05-22T23:45:22.615Z,53.17
2023-05-22T23:47:50.675Z,53.49
2023-05-22T23:50:18.393Z,53.90
2023-05-22T23:52:48.417Z,53.51
2023-05-22T23:55:16.329Z,53.53
2023-05-22T23:57:44.202Z,53.48
